Ana Sayfa
METAR-TAF:

METAR-TAF

Havaalanları :

Shannon Airport

Fredericksburg, Virginia, Amerika Birleşik Devletleri

Enlem: 38-16N, Boylam: 077-27W, yükseklik: 26 m

Güncel hava durumu gözlemi

Rapor saat 11:55 UTC de 14 dakika önce yapıldı.
Sakin rüzgar
Sıcaklık 26°C
Nem 94%
Basınç 1014 hPa
Görüş mesafesi: 16.1 km
Açık gökyüzü

METAR: KEZF 191155Z AUTO 00000KT 10SM CLR 26/25 A2994 RMK AO2 T02590245 10260 20235

Saat: 08:09 (12:09 UTC)


TAF: eksik

4.000'den fazla havaalanı için hava durumu gözlemleri ve tahminleri (METAR ve TAF raporları).

Kullanılabilir istasyonlar harita üzerinde sarı ve kırmızı noktalarla gösterilir.

İstasyonun adını görmek için fareyi noktanın üzerinde gezdirin.

Sonrasında hava gözlem ve tahminlerini görmek için tıklayın.

Haritayı değiştirmek için: yaklaştırmak için siyah artı işaretli yeşil düğmeye ve uzaklaştırmak için de eksi işaretli düğmeye hızla tıklayın; bitişik haritalar için yeşil okları kullanın.


METAR-TAF: